sensor_id;sensor_type;location;lat;lon;timestamp;pressure;altitude;pressure_sealevel;temperature;humidity
64841;BME280;51307;52.162;7.560;2023-04-30T00:00:25;101820.16;;;9.87;53.96
64841;BME280;51307;52.162;7.560;2023-04-30T00:02:50;101818.22;;;9.89;54.19
64841;BME280;51307;52.162;7.560;2023-04-30T00:05:16;101823.50;;;9.80;54.58
64841;BME280;51307;52.162;7.560;2023-04-30T00:07:41;101825.78;;;9.84;54.50
64841;BME280;51307;52.162;7.560;2023-04-30T00:10:10;101826.56;;;9.96;54.15
64841;BME280;51307;52.162;7.560;2023-04-30T00:12:37;101823.88;;;9.96;54.17
64841;BME280;51307;52.162;7.560;2023-04-30T00:15:03;101819.66;;;9.93;53.95
64841;BME280;51307;52.162;7.560;2023-04-30T00:17:29;101825.81;;;9.94;54.10
64841;BME280;51307;52.162;7.560;2023-04-30T00:19:55;101822.50;;;9.81;54.22
64841;BME280;51307;52.162;7.560;2023-04-30T00:22:20;101820.38;;;9.74;54.57
64841;BME280;51307;52.162;7.560;2023-04-30T00:24:46;101824.75;;;9.75;54.48
64841;BME280;51307;52.162;7.560;2023-04-30T00:27:12;101822.56;;;9.69;54.72
64841;BME280;51307;52.162;7.560;2023-04-30T00:29:37;101824.97;;;9.51;55.22
64841;BME280;51307;52.162;7.560;2023-04-30T00:32:03;101823.75;;;9.55;55.12
64841;BME280;51307;52.162;7.560;2023-04-30T00:34:28;101831.44;;;9.49;55.33
64841;BME280;51307;52.162;7.560;2023-04-30T00:36:56;101836.44;;;9.63;54.91
64841;BME280;51307;52.162;7.560;2023-04-30T00:39:21;101837.78;;;9.69;54.64
64841;BME280;51307;52.162;7.560;2023-04-30T00:41:47;101834.38;;;9.67;54.73
64841;BME280;51307;52.162;7.560;2023-04-30T00:44:12;101837.19;;;9.65;54.65
64841;BME280;51307;52.162;7.560;2023-04-30T00:46:38;101840.34;;;9.59;54.78
64841;BME280;51307;52.162;7.560;2023-04-30T00:49:03;101839.03;;;9.53;55.07
64841;BME280;51307;52.162;7.560;2023-04-30T00:51:32;101839.44;;;9.49;54.81
64841;BME280;51307;52.162;7.560;2023-04-30T00:54:01;101832.88;;;9.53;55.02
64841;BME280;51307;52.162;7.560;2023-04-30T00:56:28;101832.88;;;9.53;54.62
64841;BME280;51307;52.162;7.560;2023-04-30T00:58:57;101836.28;;;9.43;54.94
64841;BME280;51307;52.162;7.560;2023-04-30T01:01:24;101836.38;;;9.53;54.17
64841;BME280;51307;52.162;7.560;2023-04-30T01:03:50;101841.91;;;9.40;54.60
64841;BME280;51307;52.162;7.560;2023-04-30T01:06:16;101842.13;;;9.37;54.22
64841;BME280;51307;52.162;7.560;2023-04-30T01:08:42;101845.38;;;9.08;54.77
64841;BME280;51307;52.162;7.560;2023-04-30T01:14:06;101839.44;;;9.16;54.46
64841;BME280;51307;52.162;7.560;2023-04-30T01:16:47;101837.38;;;9.08;54.89
64841;BME280;51307;52.162;7.560;2023-04-30T01:19:40;101843.19;;;9.02;54.88
64841;BME280;51307;52.162;7.560;2023-04-30T01:22:13;101844.78;;;9.05;54.81
64841;BME280;51307;52.162;7.560;2023-04-30T01:29:51;101843.22;;;8.91;55.42
64841;BME280;51307;52.162;7.560;2023-04-30T01:32:17;101841.28;;;9.04;55.29
64841;BME280;51307;52.162;7.560;2023-04-30T01:34:42;101837.63;;;8.94;55.13
64841;BME280;51307;52.162;7.560;2023-04-30T01:37:15;101834.25;;;8.92;55.25
64841;BME280;51307;52.162;7.560;2023-04-30T01:43:04;101839.94;;;8.87;54.84
64841;BME280;51307;52.162;7.560;2023-04-30T01:51:38;101847.09;;;8.53;56.30
64841;BME280;51307;52.162;7.560;2023-04-30T01:57:02;101847.81;;;8.78;55.90
64841;BME280;51307;52.162;7.560;2023-04-30T01:59:34;101858.00;;;8.84;55.71
64841;BME280;51307;52.162;7.560;2023-04-30T02:02:01;101856.31;;;8.71;56.11
64841;BME280;51307;52.162;7.560;2023-04-30T02:04:27;101864.81;;;8.76;55.69
64841;BME280;51307;52.162;7.560;2023-04-30T02:06:52;101868.69;;;8.61;56.25
64841;BME280;51307;52.162;7.560;2023-04-30T02:09:18;101870.25;;;9.09;55.08
64841;BME280;51307;52.162;7.560;2023-04-30T02:11:43;101871.13;;;8.98;55.40
64841;BME280;51307;52.162;7.560;2023-04-30T02:14:09;101860.91;;;8.81;55.66
64841;BME280;51307;52.162;7.560;2023-04-30T02:16:35;101867.72;;;8.73;55.79
64841;BME280;51307;52.162;7.560;2023-04-30T02:19:01;101874.63;;;8.65;56.03
64841;BME280;51307;52.162;7.560;2023-04-30T02:21:26;101878.25;;;8.64;55.98
64841;BME280;51307;52.162;7.560;2023-04-30T02:23:53;101871.22;;;8.51;55.97
64841;BME280;51307;52.162;7.560;2023-04-30T02:26:19;101877.78;;;8.70;55.75
64841;BME280;51307;52.162;7.560;2023-04-30T02:28:45;101881.88;;;8.51;56.12
64841;BME280;51307;52.162;7.560;2023-04-30T02:31:11;101879.75;;;8.68;55.87
64841;BME280;51307;52.162;7.560;2023-04-30T02:33:36;101887.34;;;8.84;55.71
64841;BME280;51307;52.162;7.560;2023-04-30T02:36:02;101888.69;;;8.55;55.86
64841;BME280;51307;52.162;7.560;2023-04-30T02:38:27;101885.28;;;8.31;56.11
64841;BME280;51307;52.162;7.560;2023-04-30T02:40:53;101882.94;;;8.15;55.75
64841;BME280;51307;52.162;7.560;2023-04-30T02:43:18;101881.72;;;8.19;55.51
64841;BME280;51307;52.162;7.560;2023-04-30T02:45:44;101888.38;;;8.13;55.61
64841;BME280;51307;52.162;7.560;2023-04-30T02:48:10;101888.00;;;8.06;55.65
64841;BME280;51307;52.162;7.560;2023-04-30T02:50:35;101887.44;;;8.14;55.67
64841;BME280;51307;52.162;7.560;2023-04-30T02:53:04;101890.91;;;8.03;55.81
64841;BME280;51307;52.162;7.560;2023-04-30T02:55:29;101884.19;;;8.33;54.97
64841;BME280;51307;52.162;7.560;2023-04-30T02:57:55;101882.16;;;8.01;55.56
64841;BME280;51307;52.162;7.560;2023-04-30T03:00:20;101886.59;;;7.78;56.02
64841;BME280;51307;52.162;7.560;2023-04-30T03:02:46;101884.13;;;7.99;55.45
64841;BME280;51307;52.162;7.560;2023-04-30T03:05:12;101886.78;;;7.99;55.41
64841;BME280;51307;52.162;7.560;2023-04-30T03:07:37;101883.34;;;7.86;55.96
64841;BME280;51307;52.162;7.560;2023-04-30T03:10:03;101880.03;;;7.71;56.45
64841;BME280;51307;52.162;7.560;2023-04-30T03:12:29;101875.22;;;7.87;55.58
64841;BME280;51307;52.162;7.560;2023-04-30T03:14:54;101884.81;;;7.90;55.81
64841;BME280;51307;52.162;7.560;2023-04-30T03:17:20;101880.19;;;7.81;55.93
64841;BME280;51307;52.162;7.560;2023-04-30T03:19:45;101886.28;;;7.94;55.83
64841;BME280;51307;52.162;7.560;2023-04-30T03:22:11;101880.44;;;7.89;55.60
64841;BME280;51307;52.162;7.560;2023-04-30T03:24:36;101885.91;;;7.87;55.58
64841;BME280;51307;52.162;7.560;2023-04-30T03:27:02;101880.50;;;7.76;55.89
64841;BME280;51307;52.162;7.560;2023-04-30T03:29:27;101885.50;;;7.81;55.78
64841;BME280;51307;52.162;7.560;2023-04-30T03:31:53;101871.56;;;7.77;55.54
64841;BME280;51307;52.162;7.560;2023-04-30T03:34:18;101869.63;;;7.79;55.55
64841;BME280;51307;52.162;7.560;2023-04-30T03:36:44;101865.81;;;7.59;55.82
64841;BME280;51307;52.162;7.560;2023-04-30T03:39:09;101861.00;;;7.75;55.33
64841;BME280;51307;52.162;7.560;2023-04-30T03:41:35;101869.59;;;7.44;56.10
64841;BME280;51307;52.162;7.560;2023-04-30T03:44:01;101868.88;;;7.41;56.21
64841;BME280;51307;52.162;7.560;2023-04-30T03:46:26;101866.63;;;7.60;56.17
64841;BME280;51307;52.162;7.560;2023-04-30T03:48:52;101871.56;;;7.53;56.07
64841;BME280;51307;52.162;7.560;2023-04-30T03:51:19;101868.31;;;7.49;55.96
64841;BME280;51307;52.162;7.560;2023-04-30T03:53:45;101872.44;;;7.53;56.02
64841;BME280;51307;52.162;7.560;2023-04-30T03:56:12;101871.56;;;7.53;55.92
64841;BME280;51307;52.162;7.560;2023-04-30T03:58:38;101876.75;;;7.43;56.17
64841;BME280;51307;52.162;7.560;2023-04-30T04:01:04;101872.50;;;7.40;56.48
64841;BME280;51307;52.162;7.560;2023-04-30T04:03:30;101863.81;;;7.50;56.27
64841;BME280;51307;52.162;7.560;2023-04-30T04:05:56;101876.78;;;7.54;56.37
64841;BME280;51307;52.162;7.560;2023-04-30T04:08:21;101876.66;;;7.56;56.32
64841;BME280;51307;52.162;7.560;2023-04-30T04:10:47;101882.91;;;7.44;56.79
64841;BME280;51307;52.162;7.560;2023-04-30T04:13:12;101886.72;;;7.52;56.34
64841;BME280;51307;52.162;7.560;2023-04-30T04:15:38;101885.44;;;7.45;56.63
64841;BME280;51307;52.162;7.560;2023-04-30T04:18:03;101885.06;;;7.38;56.61
64841;BME280;51307;52.162;7.560;2023-04-30T04:20:31;101889.88;;;7.33;56.66
64841;BME280;51307;52.162;7.560;2023-04-30T04:22:56;101886.72;;;7.28;56.97
64841;BME280;51307;52.162;7.560;2023-04-30T04:25:22;101888.63;;;7.26;57.08
64841;BME280;51307;52.162;7.560;2023-04-30T04:27:50;101890.38;;;7.38;56.77
64841;BME280;51307;52.162;7.560;2023-04-30T04:30:16;101889.88;;;7.33;56.90
64841;BME280;51307;52.162;7.560;2023-04-30T04:32:42;101889.59;;;7.25;57.37
64841;BME280;51307;52.162;7.560;2023-04-30T04:35:13;101892.16;;;7.51;56.64
64841;BME280;51307;52.162;7.560;2023-04-30T04:37:38;101891.56;;;7.34;56.73
64841;BME280;51307;52.162;7.560;2023-04-30T04:40:04;101895.34;;;7.19;57.13
64841;BME280;51307;52.162;7.560;2023-04-30T04:42:30;101898.84;;;7.32;56.79
64841;BME280;51307;52.162;7.560;2023-04-30T04:44:56;101888.91;;;7.34;56.58
64841;BME280;51307;52.162;7.560;2023-04-30T04:47:22;101896.59;;;7.26;56.61
64841;BME280;51307;52.162;7.560;2023-04-30T04:49:47;101895.69;;;7.38;56.59
64841;BME280;51307;52.162;7.560;2023-04-30T04:52:13;101893.41;;;7.21;57.31
64841;BME280;51307;52.162;7.560;2023-04-30T04:54:38;101897.78;;;7.22;57.40
64841;BME280;51307;52.162;7.560;2023-04-30T04:57:03;101894.59;;;7.54;56.80
64841;BME280;51307;52.162;7.560;2023-04-30T04:59:29;101898.22;;;7.53;56.75
64841;BME280;51307;52.162;7.560;2023-04-30T05:01:55;101893.66;;;7.42;57.56
64841;BME280;51307;52.162;7.560;2023-04-30T05:04:21;101897.34;;;7.77;56.96
64841;BME280;51307;52.162;7.560;2023-04-30T05:06:46;101897.25;;;7.89;57.00
64841;BME280;51307;52.162;7.560;2023-04-30T05:09:12;101899.75;;;7.68;57.51
64841;BME280;51307;52.162;7.560;2023-04-30T05:11:37;101905.25;;;7.89;57.34
64841;BME280;51307;52.162;7.560;2023-04-30T05:14:03;101905.34;;;7.77;57.90
64841;BME280;51307;52.162;7.560;2023-04-30T05:16:28;101897.13;;;7.80;57.93
64841;BME280;51307;52.162;7.560;2023-04-30T05:18:54;101899.66;;;7.81;58.03
64841;BME280;51307;52.162;7.560;2023-04-30T05:21:20;101903.19;;;7.82;58.16
64841;BME280;51307;52.162;7.560;2023-04-30T05:23:45;101900.97;;;7.75;58.50
64841;BME280;51307;52.162;7.560;2023-04-30T05:26:13;101909.31;;;7.95;58.20
64841;BME280;51307;52.162;7.560;2023-04-30T05:28:39;101909.09;;;8.09;57.72
64841;BME280;51307;52.162;7.560;2023-04-30T05:31:05;101903.31;;;8.27;57.15
64841;BME280;51307;52.162;7.560;2023-04-30T05:33:30;101910.41;;;8.51;56.73
64841;BME280;51307;52.162;7.560;2023-04-30T05:35:56;101903.09;;;8.41;57.22
64841;BME280;51307;52.162;7.560;2023-04-30T05:38:21;101904.34;;;8.60;56.99
64841;BME280;51307;52.162;7.560;2023-04-30T05:40:47;101907.81;;;8.38;57.51
64841;BME280;51307;52.162;7.560;2023-04-30T05:43:12;101913.06;;;8.62;57.19
64841;BME280;51307;52.162;7.560;2023-04-30T05:45:38;101910.66;;;8.82;56.65
64841;BME280;51307;52.162;7.560;2023-04-30T05:48:04;101902.31;;;8.86;56.57
64841;BME280;51307;52.162;7.560;2023-04-30T05:50:29;101914.28;;;8.47;58.03
64841;BME280;51307;52.162;7.560;2023-04-30T05:52:55;101909.47;;;8.86;56.94
64841;BME280;51307;52.162;7.560;2023-04-30T05:55:20;101912.84;;;8.88;56.77
64841;BME280;51307;52.162;7.560;2023-04-30T05:57:46;101914.66;;;8.76;57.07
64841;BME280;51307;52.162;7.560;2023-04-30T06:00:12;101918.16;;;8.76;57.63
64841;BME280;51307;52.162;7.560;2023-04-30T06:02:37;101923.53;;;8.88;57.34
64841;BME280;51307;52.162;7.560;2023-04-30T06:05:04;101920.75;;;8.89;57.17
64841;BME280;51307;52.162;7.560;2023-04-30T06:07:30;101920.63;;;9.02;57.10
64841;BME280;51307;52.162;7.560;2023-04-30T06:09:55;101926.69;;;9.16;57.10
64841;BME280;51307;52.162;7.560;2023-04-30T06:12:21;101923.16;;;9.04;57.32
64841;BME280;51307;52.162;7.560;2023-04-30T06:14:46;101932.00;;;9.16;56.83
64841;BME280;51307;52.162;7.560;2023-04-30T06:17:12;101930.94;;;8.96;57.51
64841;BME280;51307;52.162;7.560;2023-04-30T06:19:43;101922.03;;;9.29;56.32
64841;BME280;51307;52.162;7.560;2023-04-30T06:22:09;101928.69;;;9.35;56.03
64841;BME280;51307;52.162;7.560;2023-04-30T06:24:36;101923.88;;;9.29;56.42
64841;BME280;51307;52.162;7.560;2023-04-30T06:27:02;101932.59;;;9.42;55.43
64841;BME280;51307;52.162;7.560;2023-04-30T06:29:28;101921.22;;;9.29;55.24
64841;BME280;51307;52.162;7.560;2023-04-30T06:31:59;101931.03;;;9.28;55.17
64841;BME280;51307;52.162;7.560;2023-04-30T06:34:24;101934.44;;;9.30;55.71
64841;BME280;51307;52.162;7.560;2023-04-30T06:36:50;101928.78;;;9.56;55.09
64841;BME280;51307;52.162;7.560;2023-04-30T06:39:15;101931.59;;;9.54;55.41
64841;BME280;51307;52.162;7.560;2023-04-30T06:41:44;101931.75;;;9.30;55.80
64841;BME280;51307;52.162;7.560;2023-04-30T06:44:11;101933.97;;;9.69;54.82
64841;BME280;51307;52.162;7.560;2023-04-30T06:46:37;101933.31;;;9.76;54.32
64841;BME280;51307;52.162;7.560;2023-04-30T06:49:02;101937.44;;;9.81;54.26
64841;BME280;51307;52.162;7.560;2023-04-30T06:51:28;101932.63;;;9.74;54.53
64841;BME280;51307;52.162;7.560;2023-04-30T06:53:53;101931.09;;;9.93;53.90
64841;BME280;51307;52.162;7.560;2023-04-30T06:56:19;101927.47;;;9.83;54.25
64841;BME280;51307;52.162;7.560;2023-04-30T06:58:46;101919.78;;;9.89;54.17
64841;BME280;51307;52.162;7.560;2023-04-30T07:01:12;101939.66;;;9.75;53.96
64841;BME280;51307;52.162;7.560;2023-04-30T07:03:37;101927.06;;;9.99;53.75
64841;BME280;51307;52.162;7.560;2023-04-30T07:06:03;101936.72;;;10.11;53.50
64841;BME280;51307;52.162;7.560;2023-04-30T07:08:29;101937.38;;;10.24;52.86
64841;BME280;51307;52.162;7.560;2023-04-30T07:10:55;101940.25;;;10.33;52.89
64841;BME280;51307;52.162;7.560;2023-04-30T07:13:21;101942.53;;;10.37;51.97
64841;BME280;51307;52.162;7.560;2023-04-30T07:15:46;101940.22;;;10.12;52.32
64841;BME280;51307;52.162;7.560;2023-04-30T07:18:12;101945.41;;;10.24;51.97
64841;BME280;51307;52.162;7.560;2023-04-30T07:20:38;101943.97;;;10.20;52.55
64841;BME280;51307;52.162;7.560;2023-04-30T07:23:03;101938.63;;;10.41;51.17
64841;BME280;51307;52.162;7.560;2023-04-30T07:25:29;101940.19;;;10.23;51.59
64841;BME280;51307;52.162;7.560;2023-04-30T07:27:54;101934.97;;;10.21;51.44
64841;BME280;51307;52.162;7.560;2023-04-30T07:30:20;101931.81;;;10.16;51.31
64841;BME280;51307;52.162;7.560;2023-04-30T07:32:46;101930.22;;;10.46;51.01
64841;BME280;51307;52.162;7.560;2023-04-30T07:35:12;101937.63;;;10.42;51.11
64841;BME280;51307;52.162;7.560;2023-04-30T07:37:39;101938.97;;;10.48;51.14
64841;BME280;51307;52.162;7.560;2023-04-30T07:40:06;101936.88;;;10.52;51.51
64841;BME280;51307;52.162;7.560;2023-04-30T07:42:33;101932.16;;;10.65;51.00
64841;BME280;51307;52.162;7.560;2023-04-30T07:44:58;101929.28;;;10.57;50.67
64841;BME280;51307;52.162;7.560;2023-04-30T07:47:25;101934.75;;;10.76;50.48
64841;BME280;51307;52.162;7.560;2023-04-30T07:49:51;101942.66;;;10.57;49.49
64841;BME280;51307;52.162;7.560;2023-04-30T07:52:16;101934.47;;;10.80;49.91
64841;BME280;51307;52.162;7.560;2023-04-30T07:54:42;101940.97;;;10.87;49.70
64841;BME280;51307;52.162;7.560;2023-04-30T07:57:07;101940.16;;;10.86;49.45
64841;BME280;51307;52.162;7.560;2023-04-30T07:59:33;101946.03;;;10.80;48.60
64841;BME280;51307;52.162;7.560;2023-04-30T08:01:59;101947.41;;;10.74;48.52
64841;BME280;51307;52.162;7.560;2023-04-30T08:04:25;101946.75;;;10.82;48.46
64841;BME280;51307;52.162;7.560;2023-04-30T08:06:51;101945.22;;;10.89;48.91
64841;BME280;51307;52.162;7.560;2023-04-30T08:09:16;101947.06;;;10.89;48.47
64841;BME280;51307;52.162;7.560;2023-04-30T08:11:42;101949.47;;;10.92;47.54
64841;BME280;51307;52.162;7.560;2023-04-30T08:14:07;101947.25;;;10.97;48.33
64841;BME280;51307;52.162;7.560;2023-04-30T08:16:33;101949.81;;;11.08;48.28
64841;BME280;51307;52.162;7.560;2023-04-30T08:18:58;101949.78;;;10.99;48.04
64841;BME280;51307;52.162;7.560;2023-04-30T08:21:24;101949.59;;;10.90;47.80
64841;BME280;51307;52.162;7.560;2023-04-30T08:23:53;101954.91;;;11.12;48.52
64841;BME280;51307;52.162;7.560;2023-04-30T08:26:18;101957.63;;;10.90;47.91
64841;BME280;51307;52.162;7.560;2023-04-30T08:28:44;101952.66;;;11.17;47.50
64841;BME280;51307;52.162;7.560;2023-04-30T08:31:09;101961.41;;;11.19;47.57
64841;BME280;51307;52.162;7.560;2023-04-30T08:33:35;101946.13;;;11.00;47.72
64841;BME280;51307;52.162;7.560;2023-04-30T08:36:00;101951.44;;;11.21;47.80
64841;BME280;51307;52.162;7.560;2023-04-30T08:38:27;101956.03;;;11.09;47.07
64841;BME280;51307;52.162;7.560;2023-04-30T08:43:29;101953.16;;;11.32;47.09
64841;BME280;51307;52.162;7.560;2023-04-30T08:45:55;101955.94;;;11.30;46.95
64841;BME280;51307;52.162;7.560;2023-04-30T08:48:23;101962.81;;;11.13;47.67
64841;BME280;51307;52.162;7.560;2023-04-30T08:50:49;101952.13;;;11.23;47.04
64841;BME280;51307;52.162;7.560;2023-04-30T08:53:15;101951.06;;;11.45;48.16
64841;BME280;51307;52.162;7.560;2023-04-30T08:55:41;101951.06;;;11.55;47.90
64841;BME280;51307;52.162;7.560;2023-04-30T08:58:07;101946.53;;;11.55;46.92
64841;BME280;51307;52.162;7.560;2023-04-30T09:00:37;101939.78;;;11.61;46.96
64841;BME280;51307;52.162;7.560;2023-04-30T09:03:04;101948.94;;;11.58;47.72
64841;BME280;51307;52.162;7.560;2023-04-30T09:05:30;101940.50;;;11.73;47.89
64841;BME280;51307;52.162;7.560;2023-04-30T09:07:56;101936.41;;;11.78;47.95
64841;BME280;51307;52.162;7.560;2023-04-30T09:10:21;101937.59;;;11.86;48.01
64841;BME280;51307;52.162;7.560;2023-04-30T09:13:04;101947.56;;;11.84;47.46
64841;BME280;51307;52.162;7.560;2023-04-30T09:15:32;101938.41;;;11.96;47.12
64841;BME280;51307;52.162;7.560;2023-04-30T09:18:18;101929.53;;;12.05;46.41
64841;BME280;51307;52.162;7.560;2023-04-30T09:21:00;101939.56;;;12.03;45.92
64841;BME280;51307;52.162;7.560;2023-04-30T09:23:26;101942.09;;;12.15;45.71
64841;BME280;51307;52.162;7.560;2023-04-30T09:25:52;101935.59;;;12.07;47.00
64841;BME280;51307;52.162;7.560;2023-04-30T09:28:18;101942.78;;;11.77;46.69
64841;BME280;51307;52.162;7.560;2023-04-30T09:30:50;101933.59;;;12.09;46.86
64841;BME280;51307;52.162;7.560;2023-04-30T09:33:16;101931.94;;;12.18;46.01
64841;BME280;51307;52.162;7.560;2023-04-30T09:35:42;101933.34;;;12.13;45.53
64841;BME280;51307;52.162;7.560;2023-04-30T09:38:25;101931.06;;;12.08;45.71
64841;BME280;51307;52.162;7.560;2023-04-30T09:40:51;101932.78;;;12.09;45.75
64841;BME280;51307;52.162;7.560;2023-04-30T09:43:16;101922.19;;;12.07;45.46
64841;BME280;51307;52.162;7.560;2023-04-30T09:45:46;101914.97;;;12.18;46.13
64841;BME280;51307;52.162;7.560;2023-04-30T09:48:19;101922.03;;;12.19;45.70
64841;BME280;51307;52.162;7.560;2023-04-30T09:50:45;101915.81;;;12.18;45.58
64841;BME280;51307;52.162;7.560;2023-04-30T09:53:12;101918.91;;;12.33;46.07
64841;BME280;51307;52.162;7.560;2023-04-30T09:55:50;101915.22;;;12.44;45.77
64841;BME280;51307;52.162;7.560;2023-04-30T09:58:17;101915.22;;;12.44;45.89
64841;BME280;51307;52.162;7.560;2023-04-30T10:00:49;101916.72;;;12.56;44.49
64841;BME280;51307;52.162;7.560;2023-04-30T10:03:19;101905.16;;;12.56;43.91
64841;BME280;51307;52.162;7.560;2023-04-30T10:05:47;101905.66;;;12.69;45.18
64841;BME280;51307;52.162;7.560;2023-04-30T10:08:26;101897.59;;;12.69;45.15
64841;BME280;51307;52.162;7.560;2023-04-30T10:11:02;101908.03;;;12.72;45.37
64841;BME280;51307;52.162;7.560;2023-04-30T10:13:36;101902.81;;;12.71;44.58
64841;BME280;51307;52.162;7.560;2023-04-30T10:16:10;101909.50;;;12.67;46.10
64841;BME280;51307;52.162;7.560;2023-04-30T10:18:45;101895.44;;;12.83;45.38
64841;BME280;51307;52.162;7.560;2023-04-30T10:21:17;101901.06;;;12.89;44.36
64841;BME280;51307;52.162;7.560;2023-04-30T10:23:45;101895.72;;;12.79;45.69
64841;BME280;51307;52.162;7.560;2023-04-30T10:26:13;101891.72;;;12.84;45.66
64841;BME280;51307;52.162;7.560;2023-04-30T10:28:41;101893.09;;;12.98;45.44
64841;BME280;51307;52.162;7.560;2023-04-30T10:31:07;101902.09;;;13.06;45.69
64841;BME280;51307;52.162;7.560;2023-04-30T10:34:05;101893.03;;;13.07;45.97
64841;BME280;51307;52.162;7.560;2023-04-30T10:36:41;101888.38;;;13.09;45.66
64841;BME280;51307;52.162;7.560;2023-04-30T10:39:10;101882.81;;;13.21;44.84
64841;BME280;51307;52.162;7.560;2023-04-30T10:41:37;101884.50;;;13.22;44.50
64841;BME280;51307;52.162;7.560;2023-04-30T10:44:03;101879.53;;;13.27;44.71
64841;BME280;51307;52.162;7.560;2023-04-30T10:46:29;101878.63;;;13.36;44.55
64841;BME280;51307;52.162;7.560;2023-04-30T10:48:55;101875.63;;;13.39;43.96
64841;BME280;51307;52.162;7.560;2023-04-30T10:51:21;101875.38;;;13.33;44.08
64841;BME280;51307;52.162;7.560;2023-04-30T10:53:51;101865.41;;;13.43;44.69
64841;BME280;51307;52.162;7.560;2023-04-30T10:56:31;101869.25;;;13.40;46.18
64841;BME280;51307;52.162;7.560;2023-04-30T10:58:58;101865.25;;;13.44;44.53
64841;BME280;51307;52.162;7.560;2023-04-30T11:01:28;101861.34;;;13.57;44.20
64841;BME280;51307;52.162;7.560;2023-04-30T11:04:10;101858.09;;;13.53;44.03
64841;BME280;51307;52.162;7.560;2023-04-30T11:09:16;101844.56;;;13.63;44.27
64841;BME280;51307;52.162;7.560;2023-04-30T11:11:45;101843.28;;;13.67;45.13
64841;BME280;51307;52.162;7.560;2023-04-30T11:14:13;101836.38;;;13.65;45.41
64841;BME280;51307;52.162;7.560;2023-04-30T11:16:48;101832.59;;;13.75;44.26
64841;BME280;51307;52.162;7.560;2023-04-30T11:19:15;101835.28;;;13.75;45.14
64841;BME280;51307;52.162;7.560;2023-04-30T11:22:14;101832.09;;;13.80;45.47
64841;BME280;51307;52.162;7.560;2023-04-30T11:25:04;101825.50;;;13.74;44.68
64841;BME280;51307;52.162;7.560;2023-04-30T11:27:32;101830.84;;;13.92;46.89
64841;BME280;51307;52.162;7.560;2023-04-30T11:30:00;101821.28;;;13.98;45.69
64841;BME280;51307;52.162;7.560;2023-04-30T11:32:32;101825.84;;;14.24;46.51
64841;BME280;51307;52.162;7.560;2023-04-30T11:35:00;101825.44;;;14.37;45.96
64841;BME280;51307;52.162;7.560;2023-04-30T11:37:37;101813.31;;;14.33;45.53
64841;BME280;51307;52.162;7.560;2023-04-30T11:40:08;101814.38;;;14.22;44.69
64841;BME280;51307;52.162;7.560;2023-04-30T11:42:36;101811.38;;;14.25;44.79
64841;BME280;51307;52.162;7.560;2023-04-30T11:50:17;101801.38;;;14.09;44.60
64841;BME280;51307;52.162;7.560;2023-04-30T11:52:50;101805.22;;;14.06;43.72
64841;BME280;51307;52.162;7.560;2023-04-30T11:55:21;101798.16;;;14.05;43.21
64841;BME280;51307;52.162;7.560;2023-04-30T11:57:50;101799.03;;;14.14;43.15
64841;BME280;51307;52.162;7.560;2023-04-30T12:00:18;101796.34;;;14.14;43.14
64841;BME280;51307;52.162;7.560;2023-04-30T12:02:47;101795.38;;;14.23;44.11
64841;BME280;51307;52.162;7.560;2023-04-30T12:05:19;101791.50;;;14.18;42.71
64841;BME280;51307;52.162;7.560;2023-04-30T12:07:46;101790.06;;;14.32;44.91
64841;BME280;51307;52.162;7.560;2023-04-30T12:10:12;101794.66;;;14.39;45.19
64841;BME280;51307;52.162;7.560;2023-04-30T12:12:37;101790.81;;;14.42;42.78
64841;BME280;51307;52.162;7.560;2023-04-30T12:15:29;101781.03;;;14.41;43.08
64841;BME280;51307;52.162;7.560;2023-04-30T12:17:58;101765.03;;;14.39;43.15
64841;BME280;51307;52.162;7.560;2023-04-30T12:20:29;101775.47;;;14.42;42.98
64841;BME280;51307;52.162;7.560;2023-04-30T12:22:56;101784.13;;;14.54;42.47
64841;BME280;51307;52.162;7.560;2023-04-30T12:25:23;101766.16;;;14.63;43.34
64841;BME280;51307;52.162;7.560;2023-04-30T12:27:52;101765.97;;;14.65;43.62
64841;BME280;51307;52.162;7.560;2023-04-30T12:30:23;101767.16;;;14.70;43.46
64841;BME280;51307;52.162;7.560;2023-04-30T12:32:52;101760.81;;;14.79;44.23
64841;BME280;51307;52.162;7.560;2023-04-30T12:35:20;101769.38;;;14.75;42.83
64841;BME280;51307;52.162;7.560;2023-04-30T12:37:48;101763.50;;;14.79;42.89
64841;BME280;51307;52.162;7.560;2023-04-30T12:40:19;101761.66;;;14.88;42.50
64841;BME280;51307;52.162;7.560;2023-04-30T12:42:45;101761.81;;;14.87;43.55
64841;BME280;51307;52.162;7.560;2023-04-30T12:45:12;101756.31;;;14.96;43.52
64841;BME280;51307;52.162;7.560;2023-04-30T12:47:39;101754.78;;;14.94;43.73
64841;BME280;51307;52.162;7.560;2023-04-30T12:50:10;101750.41;;;15.01;43.25
64841;BME280;51307;52.162;7.560;2023-04-30T12:52:39;101749.75;;;14.99;42.51
64841;BME280;51307;52.162;7.560;2023-04-30T12:55:23;101755.97;;;15.08;42.22
64841;BME280;51307;52.162;7.560;2023-04-30T13:00:43;101751.75;;;15.22;41.17
64841;BME280;51307;52.162;7.560;2023-04-30T13:03:08;101744.19;;;15.25;41.53
64841;BME280;51307;52.162;7.560;2023-04-30T13:05:34;101742.00;;;15.29;41.91
64841;BME280;51307;52.162;7.560;2023-04-30T13:08:03;101732.88;;;15.30;41.72
64841;BME280;51307;52.162;7.560;2023-04-30T13:10:31;101731.59;;;15.42;41.24
64841;BME280;51307;52.162;7.560;2023-04-30T13:12:57;101734.91;;;15.03;41.31
64841;BME280;51307;52.162;7.560;2023-04-30T13:15:22;101736.94;;;15.34;42.43
64841;BME280;51307;52.162;7.560;2023-04-30T13:17:48;101731.06;;;15.47;40.22
64841;BME280;51307;52.162;7.560;2023-04-30T13:20:17;101727.00;;;15.59;40.52
64841;BME280;51307;52.162;7.560;2023-04-30T13:22:43;101729.03;;;15.57;38.44
64841;BME280;51307;52.162;7.560;2023-04-30T13:25:08;101724.66;;;15.56;39.36
64841;BME280;51307;52.162;7.560;2023-04-30T13:27:34;101716.53;;;15.65;40.06
64841;BME280;51307;52.162;7.560;2023-04-30T13:30:01;101723.13;;;15.62;39.99